Terminal Aerodrome Forecast
Issued by NWS

Home | Current Version | Previous Version | Graphics & Text | Print | Product List | Glossary On
Versions: 1 2 3 4 5 6 7 8 9 10 11 12 13 14 15 16 17 18
000
FTUS43 KGRB 270900 AAA
TAFATW
TAF AMD
KATW 270942Z 2710/2806 07005KT P6SM SCT009 OVC017
      TEMPO 2710/2714 4SM BR BKN009
     FM271500 05005KT P6SM SCT020 BKN030=

USA.gov is the U.S. government's official web portal to all federal, state and local government web resources and services.